sensor_id;sensor_type;location;lat;lon;timestamp;pressure;altitude;pressure_sealevel;temperature;humidity
32067;BME280;18573;47.890;35.066;2022-07-29T00:00:22;100633.42;;;35.92;44.26
32067;BME280;18573;47.890;35.066;2022-07-29T00:02:51;100633.16;;;36.69;42.51
32067;BME280;18573;47.890;35.066;2022-07-29T00:05:20;100636.14;;;36.01;43.83
32067;BME280;18573;47.890;35.066;2022-07-29T00:07:49;100641.16;;;36.46;42.83
32067;BME280;18573;47.890;35.066;2022-07-29T00:10:20;100642.98;;;36.52;42.48
32067;BME280;18573;47.890;35.066;2022-07-29T00:12:49;100637.20;;;35.73;44.76
32067;BME280;18573;47.890;35.066;2022-07-29T00:15:19;100637.50;;;36.39;43.49
32067;BME280;18573;47.890;35.066;2022-07-29T00:17:48;100634.39;;;36.07;44.06
32067;BME280;18573;47.890;35.066;2022-07-29T00:20:17;100634.39;;;36.07;44.06
32067;BME280;18573;47.890;35.066;2022-07-29T00:22:46;100632.29;;;36.37;42.96
32067;BME280;18573;47.890;35.066;2022-07-29T00:25:15;100629.69;;;37.14;41.48
32067;BME280;18573;47.890;35.066;2022-07-29T00:27:44;100631.62;;;36.79;41.96
32067;BME280;18573;47.890;35.066;2022-07-29T00:30:15;100633.19;;;35.70;45.03
32067;BME280;18573;47.890;35.066;2022-07-29T00:32:44;100627.44;;;36.07;43.71
32067;BME280;18573;47.890;35.066;2022-07-29T00:35:13;100627.05;;;36.29;43.17
32067;BME280;18573;47.890;35.066;2022-07-29T00:38:00;100625.13;;;35.79;43.41
32067;BME280;18573;47.890;35.066;2022-07-29T00:40:29;100626.87;;;35.73;43.84
32067;BME280;18573;47.890;35.066;2022-07-29T00:42:58;100634.38;;;36.44;41.63
32067;BME280;18573;47.890;35.066;2022-07-29T00:45:27;100642.45;;;36.60;40.29
32067;BME280;18573;47.890;35.066;2022-07-29T00:47:57;100640.78;;;35.90;40.94
32067;BME280;18573;47.890;35.066;2022-07-29T00:50:26;100642.33;;;36.97;38.82
32067;BME280;18573;47.890;35.066;2022-07-29T00:52:56;100642.33;;;36.97;38.82
32067;BME280;18573;47.890;35.066;2022-07-29T00:55:25;100641.55;;;36.45;39.31
32067;BME280;18573;47.890;35.066;2022-07-29T00:57:55;100645.74;;;37.00;38.40
32067;BME280;18573;47.890;35.066;2022-07-29T01:00:27;100641.94;;;36.43;39.12
32067;BME280;18573;47.890;35.066;2022-07-29T01:02:57;100632.13;;;35.48;40.27
32067;BME280;18573;47.890;35.066;2022-07-29T01:05:28;100632.13;;;35.48;40.27
32067;BME280;18573;47.890;35.066;2022-07-29T01:07:59;100625.03;;;35.68;40.06
32067;BME280;18573;47.890;35.066;2022-07-29T01:10:29;100624.69;;;36.10;38.85
32067;BME280;18573;47.890;35.066;2022-07-29T01:12:59;100627.22;;;36.98;37.29
32067;BME280;18573;47.890;35.066;2022-07-29T01:15:32;100633.30;;;36.59;36.66
32067;BME280;18573;47.890;35.066;2022-07-29T01:18:17;100633.30;;;36.59;36.66
32067;BME280;18573;47.890;35.066;2022-07-29T01:29:28;100638.80;;;36.52;36.94
32067;BME280;18573;47.890;35.066;2022-07-29T01:32:08;100646.66;;;36.63;36.88
32067;BME280;18573;47.890;35.066;2022-07-29T01:34:54;100645.41;;;36.13;37.03
32067;BME280;18573;47.890;35.066;2022-07-29T01:37:43;100645.41;;;36.13;37.03
32067;BME280;18573;47.890;35.066;2022-07-29T01:40:22;100639.73;;;36.22;36.78
32067;BME280;18573;47.890;35.066;2022-07-29T01:42:55;100648.00;;;36.36;37.32
32067;BME280;18573;47.890;35.066;2022-07-29T01:45:39;100641.77;;;35.55;37.58
32067;BME280;18573;47.890;35.066;2022-07-29T01:48:06;100650.36;;;36.34;36.47
32067;BME280;18573;47.890;35.066;2022-07-29T01:50:45;100648.11;;;35.12;38.20
32067;BME280;18573;47.890;35.066;2022-07-29T01:53:09;100648.11;;;35.12;38.20
32067;BME280;18573;47.890;35.066;2022-07-29T01:55:42;100649.36;;;35.01;39.23
32067;BME280;18573;47.890;35.066;2022-07-29T01:58:12;100653.23;;;36.61;36.64
32067;BME280;18573;47.890;35.066;2022-07-29T02:00:43;100651.97;;;35.77;37.84
32067;BME280;18573;47.890;35.066;2022-07-29T02:03:13;100651.97;;;35.77;37.84
32067;BME280;18573;47.890;35.066;2022-07-29T02:05:46;100655.92;;;35.03;39.17
32067;BME280;18573;47.890;35.066;2022-07-29T02:08:17;100656.06;;;35.53;37.78
32067;BME280;18573;47.890;35.066;2022-07-29T02:10:48;100653.43;;;35.37;37.83
32067;BME280;18573;47.890;35.066;2022-07-29T02:13:20;100653.43;;;35.37;37.83
32067;BME280;18573;47.890;35.066;2022-07-29T02:15:52;100651.91;;;35.57;37.59
32067;BME280;18573;47.890;35.066;2022-07-29T02:18:24;100651.91;;;35.57;37.59
32067;BME280;18573;47.890;35.066;2022-07-29T02:20:55;100655.83;;;35.39;38.02
32067;BME280;18573;47.890;35.066;2022-07-29T02:23:25;100670.84;;;36.52;36.16
32067;BME280;18573;47.890;35.066;2022-07-29T02:25:56;100670.23;;;36.49;36.39
32067;BME280;18573;47.890;35.066;2022-07-29T02:28:28;100678.80;;;36.50;35.82
32067;BME280;18573;47.890;35.066;2022-07-29T02:31:00;100678.80;;;36.50;35.82
32067;BME280;18573;47.890;35.066;2022-07-29T02:33:31;100682.46;;;36.85;35.40
32067;BME280;18573;47.890;35.066;2022-07-29T02:36:02;100679.38;;;36.09;36.70
32067;BME280;18573;47.890;35.066;2022-07-29T02:38:32;100673.77;;;35.28;37.80
32067;BME280;18573;47.890;35.066;2022-07-29T02:44:10;100685.13;;;36.47;36.50
32067;BME280;18573;47.890;35.066;2022-07-29T02:46:49;100682.42;;;35.96;37.26
32067;BME280;18573;47.890;35.066;2022-07-29T02:49:27;100676.41;;;35.61;37.73
32067;BME280;18573;47.890;35.066;2022-07-29T02:51:58;100676.48;;;35.51;37.53
32067;BME280;18573;47.890;35.066;2022-07-29T02:54:31;100676.48;;;35.51;37.53
32067;BME280;18573;47.890;35.066;2022-07-29T02:57:02;100668.89;;;34.68;39.00
32067;BME280;18573;47.890;35.066;2022-07-29T02:59:34;100669.73;;;35.39;37.90
32067;BME280;18573;47.890;35.066;2022-07-29T03:02:05;100670.30;;;34.95;38.58
32067;BME280;18573;47.890;35.066;2022-07-29T03:04:37;100668.47;;;35.80;37.59
32067;BME280;18573;47.890;35.066;2022-07-29T03:07:10;100668.47;;;35.80;37.59
32067;BME280;18573;47.890;35.066;2022-07-29T03:09:41;100660.63;;;35.89;37.50
32067;BME280;18573;47.890;35.066;2022-07-29T03:12:12;100674.25;;;36.14;36.80
32067;BME280;18573;47.890;35.066;2022-07-29T03:14:42;100674.25;;;36.14;36.80
32067;BME280;18573;47.890;35.066;2022-07-29T03:17:13;100670.11;;;35.84;37.51
32067;BME280;18573;47.890;35.066;2022-07-29T03:19:42;100672.82;;;36.11;36.78
32067;BME280;18573;47.890;35.066;2022-07-29T03:22:12;100674.11;;;36.00;37.25
32067;BME280;18573;47.890;35.066;2022-07-29T03:24:44;100676.09;;;37.12;35.24
32067;BME280;18573;47.890;35.066;2022-07-29T03:27:13;100669.54;;;36.42;36.23
32067;BME280;18573;47.890;35.066;2022-07-29T03:29:44;100676.69;;;36.88;35.69
32067;BME280;18573;47.890;35.066;2022-07-29T03:32:15;100684.17;;;36.49;36.42
32067;BME280;18573;47.890;35.066;2022-07-29T03:34:45;100684.17;;;36.49;36.42
32067;BME280;18573;47.890;35.066;2022-07-29T03:37:14;100668.95;;;35.68;37.45
32067;BME280;18573;47.890;35.066;2022-07-29T03:39:44;100679.58;;;36.74;36.14
32067;BME280;18573;47.890;35.066;2022-07-29T03:42:16;100673.03;;;35.95;37.41
32067;BME280;18573;47.890;35.066;2022-07-29T03:44:48;100673.03;;;35.95;37.41
32067;BME280;18573;47.890;35.066;2022-07-29T03:47:22;100671.45;;;35.04;38.33
32067;BME280;18573;47.890;35.066;2022-07-29T03:49:56;100674.09;;;36.17;36.89
32067;BME280;18573;47.890;35.066;2022-07-29T03:52:24;100669.32;;;36.17;36.85
32067;BME280;18573;47.890;35.066;2022-07-29T03:54:54;100676.02;;;35.32;38.06
32067;BME280;18573;47.890;35.066;2022-07-29T03:57:24;100674.10;;;37.44;35.22
32067;BME280;18573;47.890;35.066;2022-07-29T03:59:55;100677.68;;;35.23;38.53
32067;BME280;18573;47.890;35.066;2022-07-29T04:02:25;100677.68;;;35.23;38.53
32067;BME280;18573;47.890;35.066;2022-07-29T04:04:56;100690.09;;;35.93;37.23
32067;BME280;18573;47.890;35.066;2022-07-29T04:07:25;100689.63;;;36.42;36.94
32067;BME280;18573;47.890;35.066;2022-07-29T04:09:54;100689.63;;;36.42;36.94
32067;BME280;18573;47.890;35.066;2022-07-29T04:12:24;100687.98;;;36.54;36.05
32067;BME280;18573;47.890;35.066;2022-07-29T04:14:53;100687.41;;;35.50;37.36
32067;BME280;18573;47.890;35.066;2022-07-29T04:17:22;100692.48;;;36.69;35.18
32067;BME280;18573;47.890;35.066;2022-07-29T04:19:51;100698.84;;;37.18;34.97
32067;BME280;18573;47.890;35.066;2022-07-29T04:22:20;100698.84;;;37.18;34.97
32067;BME280;18573;47.890;35.066;2022-07-29T04:24:49;100696.95;;;35.83;37.51
32067;BME280;18573;47.890;35.066;2022-07-29T04:27:18;100698.72;;;36.15;36.13
32067;BME280;18573;47.890;35.066;2022-07-29T04:29:47;100698.72;;;36.15;36.13
32067;BME280;18573;47.890;35.066;2022-07-29T04:32:18;100697.75;;;37.02;34.81
32067;BME280;18573;47.890;35.066;2022-07-29T04:34:47;100696.86;;;36.67;34.56
32067;BME280;18573;47.890;35.066;2022-07-29T04:37:16;100696.86;;;36.67;34.56
32067;BME280;18573;47.890;35.066;2022-07-29T04:39:45;100705.94;;;36.57;35.52
32067;BME280;18573;47.890;35.066;2022-07-29T04:42:15;100700.88;;;37.24;34.22
32067;BME280;18573;47.890;35.066;2022-07-29T04:44:45;100692.66;;;36.06;35.63
32067;BME280;18573;47.890;35.066;2022-07-29T04:47:16;100694.20;;;36.61;34.65
32067;BME280;18573;47.890;35.066;2022-07-29T04:49:45;100688.19;;;36.55;35.30
32067;BME280;18573;47.890;35.066;2022-07-29T04:52:15;100688.19;;;36.55;35.30
32067;BME280;18573;47.890;35.066;2022-07-29T04:54:44;100690.85;;;36.65;35.10
32067;BME280;18573;47.890;35.066;2022-07-29T04:57:13;100693.81;;;36.42;35.25
32067;BME280;18573;47.890;35.066;2022-07-29T04:59:42;100687.42;;;37.10;34.17
32067;BME280;18573;47.890;35.066;2022-07-29T05:02:11;100687.42;;;37.10;34.17
32067;BME280;18573;47.890;35.066;2022-07-29T05:04:40;100689.31;;;36.47;35.39
32067;BME280;18573;47.890;35.066;2022-07-29T05:07:09;100685.42;;;37.83;33.90
32067;BME280;18573;47.890;35.066;2022-07-29T05:09:39;100690.63;;;36.84;35.34
32067;BME280;18573;47.890;35.066;2022-07-29T05:12:08;100692.70;;;36.09;35.41
32067;BME280;18573;47.890;35.066;2022-07-29T05:14:37;100692.70;;;36.09;35.41
32067;BME280;18573;47.890;35.066;2022-07-29T05:17:06;100694.73;;;36.97;34.83
32067;BME280;18573;47.890;35.066;2022-07-29T05:19:35;100692.45;;;36.25;35.63
32067;BME280;18573;47.890;35.066;2022-07-29T05:22:06;100692.45;;;36.25;35.63
32067;BME280;18573;47.890;35.066;2022-07-29T05:24:35;100698.52;;;37.65;33.97
32067;BME280;18573;47.890;35.066;2022-07-29T05:27:05;100698.52;;;37.65;33.97
32067;BME280;18573;47.890;35.066;2022-07-29T05:29:34;100702.21;;;36.90;34.83
32067;BME280;18573;47.890;35.066;2022-07-29T05:32:06;100699.45;;;36.69;34.37
32067;BME280;18573;47.890;35.066;2022-07-29T05:34:35;100699.45;;;36.69;34.37
32067;BME280;18573;47.890;35.066;2022-07-29T05:37:06;100701.67;;;38.12;33.10
32067;BME280;18573;47.890;35.066;2022-07-29T05:39:35;100699.74;;;38.45;32.55
32067;BME280;18573;47.890;35.066;2022-07-29T05:42:08;100699.74;;;38.45;32.55
32067;BME280;18573;47.890;35.066;2022-07-29T05:44:40;100698.95;;;37.74;33.70
32067;BME280;18573;47.890;35.066;2022-07-29T05:47:09;100704.98;;;38.79;32.38
32067;BME280;18573;47.890;35.066;2022-07-29T05:49:39;100695.75;;;38.67;32.64
32067;BME280;18573;47.890;35.066;2022-07-29T05:52:08;100700.84;;;39.55;31.68
32067;BME280;18573;47.890;35.066;2022-07-29T05:54:37;100700.84;;;39.55;31.68
32067;BME280;18573;47.890;35.066;2022-07-29T05:57:07;100710.66;;;39.47;31.71
32067;BME280;18573;47.890;35.066;2022-07-29T05:59:38;100708.38;;;38.78;32.38
32067;BME280;18573;47.890;35.066;2022-07-29T06:02:08;100708.38;;;38.78;32.38
32067;BME280;18573;47.890;35.066;2022-07-29T06:04:37;100702.41;;;40.03;31.24
32067;BME280;18573;47.890;35.066;2022-07-29T06:07:06;100707.75;;;41.36;29.78
32067;BME280;18573;47.890;35.066;2022-07-29T06:09:35;100707.56;;;38.88;32.10
32067;BME280;18573;47.890;35.066;2022-07-29T06:12:04;100705.63;;;40.09;30.53
32067;BME280;18573;47.890;35.066;2022-07-29T06:14:34;100714.36;;;40.73;29.61
32067;BME280;18573;47.890;35.066;2022-07-29T06:17:03;100721.41;;;44.47;26.25
32067;BME280;18573;47.890;35.066;2022-07-29T06:19:34;100715.61;;;43.73;25.94
32067;BME280;18573;47.890;35.066;2022-07-29T06:22:04;100725.02;;;44.47;25.35
32067;BME280;18573;47.890;35.066;2022-07-29T06:24:34;100716.45;;;42.64;26.80
32067;BME280;18573;47.890;35.066;2022-07-29T06:27:06;100716.45;;;42.64;26.80
32067;BME280;18573;47.890;35.066;2022-07-29T06:29:35;100724.47;;;45.60;24.29
32067;BME280;18573;47.890;35.066;2022-07-29T06:32:05;100728.55;;;44.52;24.69
32067;BME280;18573;47.890;35.066;2022-07-29T06:34:38;100716.86;;;44.98;24.19
32067;BME280;18573;47.890;35.066;2022-07-29T06:37:09;100716.86;;;44.98;24.19
32067;BME280;18573;47.890;35.066;2022-07-29T06:39:40;100714.72;;;44.74;24.45
32067;BME280;18573;47.890;35.066;2022-07-29T06:42:09;100718.31;;;46.41;22.58
32067;BME280;18573;47.890;35.066;2022-07-29T06:44:38;100718.31;;;46.41;22.58
32067;BME280;18573;47.890;35.066;2022-07-29T06:47:07;100717.98;;;45.67;23.68
32067;BME280;18573;47.890;35.066;2022-07-29T06:49:36;100711.97;;;44.29;24.94
32067;BME280;18573;47.890;35.066;2022-07-29T06:52:06;100709.70;;;45.18;23.84
32067;BME280;18573;47.890;35.066;2022-07-29T06:54:35;100709.70;;;45.18;23.84
32067;BME280;18573;47.890;35.066;2022-07-29T06:57:04;100713.23;;;45.64;23.26
32067;BME280;18573;47.890;35.066;2022-07-29T06:59:33;100701.48;;;44.70;24.19
32067;BME280;18573;47.890;35.066;2022-07-29T07:02:02;100704.22;;;44.66;24.43
32067;BME280;18573;47.890;35.066;2022-07-29T07:04:32;100704.08;;;44.94;24.11
32067;BME280;18573;47.890;35.066;2022-07-29T07:07:01;100702.83;;;43.77;24.87
32067;BME280;18573;47.890;35.066;2022-07-29T07:09:30;100700.11;;;45.00;23.79
32067;BME280;18573;47.890;35.066;2022-07-29T07:12:01;100700.11;;;45.00;23.79
32067;BME280;18573;47.890;35.066;2022-07-29T07:14:30;100705.87;;;44.88;24.32
32067;BME280;18573;47.890;35.066;2022-07-29T07:16:59;100705.87;;;44.88;24.32
32067;BME280;18573;47.890;35.066;2022-07-29T07:19:28;100699.94;;;43.01;25.53
32067;BME280;18573;47.890;35.066;2022-07-29T07:21:57;100698.41;;;43.88;25.38
32067;BME280;18573;47.890;35.066;2022-07-29T07:24:28;100698.41;;;43.88;25.38
32067;BME280;18573;47.890;35.066;2022-07-29T07:26:57;100712.02;;;45.36;23.06
32067;BME280;18573;47.890;35.066;2022-07-29T07:29:26;100712.02;;;45.36;23.06
32067;BME280;18573;47.890;35.066;2022-07-29T07:31:56;100713.11;;;46.14;22.94
32067;BME280;18573;47.890;35.066;2022-07-29T07:34:27;100718.71;;;46.10;22.81
32067;BME280;18573;47.890;35.066;2022-07-29T07:36:57;100710.09;;;47.91;21.67
32067;BME280;18573;47.890;35.066;2022-07-29T07:39:26;100705.98;;;47.83;20.95
32067;BME280;18573;47.890;35.066;2022-07-29T07:41:56;100705.98;;;47.83;20.95
32067;BME280;18573;47.890;35.066;2022-07-29T07:44:25;100709.61;;;46.36;23.01
32067;BME280;18573;47.890;35.066;2022-07-29T07:46:54;100707.50;;;45.93;22.72
32067;BME280;18573;47.890;35.066;2022-07-29T07:49:25;100711.06;;;47.93;21.25
32067;BME280;18573;47.890;35.066;2022-07-29T07:51:54;100711.06;;;47.93;21.25
32067;BME280;18573;47.890;35.066;2022-07-29T07:54:23;100712.10;;;47.11;22.03
32067;BME280;18573;47.890;35.066;2022-07-29T07:56:53;100712.10;;;47.11;22.03
32067;BME280;18573;47.890;35.066;2022-07-29T07:59:22;100699.38;;;46.94;21.91
32067;BME280;18573;47.890;35.066;2022-07-29T08:01:51;100702.85;;;46.81;22.61
32067;BME280;18573;47.890;35.066;2022-07-29T08:04:22;100702.85;;;46.81;22.61
32067;BME280;18573;47.890;35.066;2022-07-29T08:06:54;100698.63;;;48.00;21.48
32067;BME280;18573;47.890;35.066;2022-07-29T08:09:25;100703.78;;;46.09;22.85
32067;BME280;18573;47.890;35.066;2022-07-29T08:11:58;100706.11;;;46.92;22.15
32067;BME280;18573;47.890;35.066;2022-07-29T08:14:27;100704.70;;;48.15;21.30
32067;BME280;18573;47.890;35.066;2022-07-29T08:16:56;100704.70;;;48.15;21.30
32067;BME280;18573;47.890;35.066;2022-07-29T08:19:25;100703.32;;;47.36;21.93
32067;BME280;18573;47.890;35.066;2022-07-29T08:21:55;100711.94;;;46.07;22.75
32067;BME280;18573;47.890;35.066;2022-07-29T08:24:24;100702.64;;;48.11;21.35
32067;BME280;18573;47.890;35.066;2022-07-29T08:27:11;100711.56;;;47.43;21.82
32067;BME280;18573;47.890;35.066;2022-07-29T08:29:42;100712.02;;;45.57;22.92
32067;BME280;18573;47.890;35.066;2022-07-29T08:32:11;100719.06;;;46.12;22.81
32067;BME280;18573;47.890;35.066;2022-07-29T08:34:42;100718.25;;;46.11;22.59
32067;BME280;18573;47.890;35.066;2022-07-29T08:37:13;100708.48;;;47.33;21.78
32067;BME280;18573;47.890;35.066;2022-07-29T08:39:42;100716.02;;;48.06;21.48
32067;BME280;18573;47.890;35.066;2022-07-29T08:42:12;100716.02;;;48.06;21.48
32067;BME280;18573;47.890;35.066;2022-07-29T08:44:42;100714.76;;;46.33;22.04
32067;BME280;18573;47.890;35.066;2022-07-29T08:47:15;100714.76;;;46.33;22.04
32067;BME280;18573;47.890;35.066;2022-07-29T08:49:44;100711.84;;;45.77;23.05
32067;BME280;18573;47.890;35.066;2022-07-29T08:52:16;100711.84;;;45.77;23.05
32067;BME280;18573;47.890;35.066;2022-07-29T08:54:46;100702.59;;;46.02;22.31
32067;BME280;18573;47.890;35.066;2022-07-29T08:57:17;100705.05;;;47.33;21.09
32067;BME280;18573;47.890;35.066;2022-07-29T08:59:49;100705.05;;;47.33;21.09
32067;BME280;18573;47.890;35.066;2022-07-29T09:02:21;100708.28;;;47.71;21.31
32067;BME280;18573;47.890;35.066;2022-07-29T09:04:50;100704.30;;;44.30;23.06
32067;BME280;18573;47.890;35.066;2022-07-29T09:07:19;100704.30;;;44.30;23.06
32067;BME280;18573;47.890;35.066;2022-07-29T09:09:49;100701.67;;;46.91;21.74
32067;BME280;18573;47.890;35.066;2022-07-29T09:12:18;100703.12;;;48.10;20.79
32067;BME280;18573;47.890;35.066;2022-07-29T09:14:49;100703.44;;;48.75;20.05
32067;BME280;18573;47.890;35.066;2022-07-29T09:17:20;100698.78;;;47.65;20.79
32067;BME280;18573;47.890;35.066;2022-07-29T09:19:49;100701.50;;;48.63;20.13
32067;BME280;18573;47.890;35.066;2022-07-29T09:22:28;100701.50;;;48.63;20.13
32067;BME280;18573;47.890;35.066;2022-07-29T09:24:51;100693.69;;;48.27;20.12
32067;BME280;18573;47.890;35.066;2022-07-29T09:27:24;100700.95;;;45.84;21.52
32067;BME280;18573;47.890;35.066;2022-07-29T09:30:05;100699.11;;;46.84;20.55
32067;BME280;18573;47.890;35.066;2022-07-29T09:33:00;100699.11;;;46.84;20.55
32067;BME280;18573;47.890;35.066;2022-07-29T09:35:26;100686.19;;;46.83;21.02
32067;BME280;18573;47.890;35.066;2022-07-29T09:37:56;100686.19;;;46.83;21.02
32067;BME280;18573;47.890;35.066;2022-07-29T09:40:27;100693.31;;;45.89;21.01
32067;BME280;18573;47.890;35.066;2022-07-29T09:42:56;100693.31;;;45.89;21.01
32067;BME280;18573;47.890;35.066;2022-07-29T09:45:33;100687.05;;;47.80;20.04
32067;BME280;18573;47.890;35.066;2022-07-29T09:48:13;100689.34;;;46.98;21.12
32067;BME280;18573;47.890;35.066;2022-07-29T09:50:44;100689.34;;;46.98;21.12
32067;BME280;18573;47.890;35.066;2022-07-29T09:53:39;100694.59;;;46.26;20.80
32067;BME280;18573;47.890;35.066;2022-07-29T09:56:05;100694.59;;;46.26;20.80
32067;BME280;18573;47.890;35.066;2022-07-29T09:58:34;100689.33;;;45.11;21.54
32067;BME280;18573;47.890;35.066;2022-07-29T10:01:03;100689.33;;;45.11;21.54
32067;BME280;18573;47.890;35.066;2022-07-29T10:03:32;100683.41;;;44.35;21.98
32067;BME280;18573;47.890;35.066;2022-07-29T10:06:08;100683.41;;;44.35;21.98
32067;BME280;18573;47.890;35.066;2022-07-29T10:08:38;100675.88;;;45.23;21.81
32067;BME280;18573;47.890;35.066;2022-07-29T10:11:12;100682.27;;;44.25;21.98
32067;BME280;18573;47.890;35.066;2022-07-29T10:13:44;100682.27;;;44.25;21.98
32067;BME280;18573;47.890;35.066;2022-07-29T10:16:14;100684.44;;;44.17;22.63
32067;BME280;18573;47.890;35.066;2022-07-29T10:18:44;100687.17;;;44.20;22.48
32067;BME280;18573;47.890;35.066;2022-07-29T10:21:19;100687.17;;;44.20;22.48
32067;BME280;18573;47.890;35.066;2022-07-29T10:23:50;100671.08;;;44.37;21.89
32067;BME280;18573;47.890;35.066;2022-07-29T10:26:22;100667.04;;;45.50;21.78
32067;BME280;18573;47.890;35.066;2022-07-29T10:28:52;100667.04;;;45.50;21.78
32067;BME280;18573;47.890;35.066;2022-07-29T10:31:27;100672.38;;;43.80;22.60
32067;BME280;18573;47.890;35.066;2022-07-29T10:37:12;100663.76;;;42.99;23.29
32067;BME280;18573;47.890;35.066;2022-07-29T10:39:56;100670.95;;;44.08;22.71
32067;BME280;18573;47.890;35.066;2022-07-29T10:42:27;100662.45;;;43.47;22.84
32067;BME280;18573;47.890;35.066;2022-07-29T10:45:00;100662.45;;;43.47;22.84
32067;BME280;18573;47.890;35.066;2022-07-29T10:47:31;100667.72;;;44.34;21.96
32067;BME280;18573;47.890;35.066;2022-07-29T10:50:04;100666.64;;;43.28;22.88
32067;BME280;18573;47.890;35.066;2022-07-29T10:52:53;100656.52;;;44.22;22.39
32067;BME280;18573;47.890;35.066;2022-07-29T10:55:38;100656.52;;;44.22;22.39
32067;BME280;18573;47.890;35.066;2022-07-29T10:58:16;100665.50;;;43.25;23.00
32067;BME280;18573;47.890;35.066;2022-07-29T11:00:49;100670.16;;;42.68;23.14
32067;BME280;18573;47.890;35.066;2022-07-29T11:03:45;100661.16;;;42.77;22.52
32067;BME280;18573;47.890;35.066;2022-07-29T11:06:16;100661.25;;;43.93;21.73
32067;BME280;18573;47.890;35.066;2022-07-29T11:09:05;100658.72;;;43.70;21.94
32067;BME280;18573;47.890;35.066;2022-07-29T11:13:54;100654.31;;;43.41;22.28
32067;BME280;18573;47.890;35.066;2022-07-29T11:16:23;100654.31;;;43.41;22.28
32067;BME280;18573;47.890;35.066;2022-07-29T11:21:45;100650.75;;;43.85;21.43
32067;BME280;18573;47.890;35.066;2022-07-29T11:24:21;100655.08;;;44.80;21.12
32067;BME280;18573;47.890;35.066;2022-07-29T11:27:17;100655.08;;;44.80;21.12
32067;BME280;18573;47.890;35.066;2022-07-29T11:29:54;100649.72;;;44.12;21.61
32067;BME280;18573;47.890;35.066;2022-07-29T11:32:28;100649.22;;;45.24;20.76
32067;BME280;18573;47.890;35.066;2022-07-29T11:38:26;100653.19;;;44.89;20.57
32067;BME280;18573;47.890;35.066;2022-07-29T11:43:51;100645.33;;;43.66;21.34
32067;BME280;18573;47.890;35.066;2022-07-29T11:49:24;100640.81;;;44.21;20.49
32067;BME280;18573;47.890;35.066;2022-07-29T11:51:53;100640.81;;;44.21;20.49
32067;BME280;18573;47.890;35.066;2022-07-29T11:54:26;100649.51;;;45.34;19.96
32067;BME280;18573;47.890;35.066;2022-07-29T11:56:57;100635.86;;;43.48;20.87
32067;BME280;18573;47.890;35.066;2022-07-29T11:59:27;100636.85;;;43.58;21.00
32067;BME280;18573;47.890;35.066;2022-07-29T12:01:59;100636.85;;;43.58;21.00
32067;BME280;18573;47.890;35.066;2022-07-29T12:04:31;100641.45;;;44.99;20.14
32067;BME280;18573;47.890;35.066;2022-07-29T12:07:00;100630.55;;;44.23;20.65
32067;BME280;18573;47.890;35.066;2022-07-29T12:09:31;100632.37;;;43.33;21.15
32067;BME280;18573;47.890;35.066;2022-07-29T12:12:02;100628.06;;;43.56;20.68
32067;BME280;18573;47.890;35.066;2022-07-29T12:14:33;100630.67;;;43.47;20.56
32067;BME280;18573;47.890;35.066;2022-07-29T12:17:02;100630.67;;;43.47;20.56
32067;BME280;18573;47.890;35.066;2022-07-29T12:19:42;100629.62;;;43.85;20.49
32067;BME280;18573;47.890;35.066;2022-07-29T12:22:04;100623.59;;;44.28;20.22
32067;BME280;18573;47.890;35.066;2022-07-29T12:24:43;100623.59;;;44.28;20.22
32067;BME280;18573;47.890;35.066;2022-07-29T12:27:16;100623.55;;;44.03;20.16
32067;BME280;18573;47.890;35.066;2022-07-29T12:29:57;100617.19;;;43.27;20.80
32067;BME280;18573;47.890;35.066;2022-07-29T12:32:37;100623.13;;;43.12;20.52
32067;BME280;18573;47.890;35.066;2022-07-29T12:35:12;100623.13;;;43.12;20.52
32067;BME280;18573;47.890;35.066;2022-07-29T12:37:44;100622.03;;;43.26;20.46
32067;BME280;18573;47.890;35.066;2022-07-29T12:40:16;100627.34;;;43.12;20.48
32067;BME280;18573;47.890;35.066;2022-07-29T12:45:38;100611.69;;;42.80;20.90
32067;BME280;18573;47.890;35.066;2022-07-29T12:48:09;100615.60;;;43.45;19.58
32067;BME280;18573;47.890;35.066;2022-07-29T12:51:01;100615.60;;;43.45;19.58
32067;BME280;18573;47.890;35.066;2022-07-29T12:53:26;100615.14;;;42.67;20.76
32067;BME280;18573;47.890;35.066;2022-07-29T12:55:57;100612.27;;;42.36;20.40
32067;BME280;18573;47.890;35.066;2022-07-29T12:58:41;100612.27;;;42.36;20.40
32067;BME280;18573;47.890;35.066;2022-07-29T13:01:10;100614.03;;;43.25;19.61
32067;BME280;18573;47.890;35.066;2022-07-29T13:06:32;100613.34;;;43.93;19.23
32067;BME280;18573;47.890;35.066;2022-07-29T13:09:14;100620.23;;;42.02;20.30
32067;BME280;18573;47.890;35.066;2022-07-29T13:11:45;100620.23;;;42.02;20.30
32067;BME280;18573;47.890;35.066;2022-07-29T13:14:35;100612.09;;;41.96;20.02
32067;BME280;18573;47.890;35.066;2022-07-29T13:17:16;100615.31;;;42.68;19.73
32067;BME280;18573;47.890;35.066;2022-07-29T13:19:51;100620.55;;;43.86;19.13
32067;BME280;18573;47.890;35.066;2022-07-29T13:22:23;100620.55;;;43.86;19.13
32067;BME280;18573;47.890;35.066;2022-07-29T13:24:57;100622.84;;;42.95;19.70
32067;BME280;18573;47.890;35.066;2022-07-29T13:27:28;100627.02;;;42.16;20.17
32067;BME280;18573;47.890;35.066;2022-07-29T13:30:01;100620.20;;;42.96;19.73
32067;BME280;18573;47.890;35.066;2022-07-29T13:32:31;100613.50;;;41.04;20.83
32067;BME280;18573;47.890;35.066;2022-07-29T13:35:04;100613.50;;;41.04;20.83
32067;BME280;18573;47.890;35.066;2022-07-29T13:37:34;100605.79;;;42.39;20.11